sensor_id;sensor_type;location;lat;lon;timestamp;temperature;humidity
32139;DHT22;18644;48.700;9.210;2024-03-25T00:01:54;7.90;63.10
32139;DHT22;18644;48.700;9.210;2024-03-25T00:04:21;7.90;63.10
32139;DHT22;18644;48.700;9.210;2024-03-25T00:06:48;7.90;63.10
32139;DHT22;18644;48.700;9.210;2024-03-25T00:09:15;7.90;63.10
32139;DHT22;18644;48.700;9.210;2024-03-25T00:11:41;7.90;63.10
32139;DHT22;18644;48.700;9.210;2024-03-25T00:14:10;7.90;63.10
32139;DHT22;18644;48.700;9.210;2024-03-25T00:16:36;7.90;63.10
32139;DHT22;18644;48.700;9.210;2024-03-25T00:19:03;7.90;63.10
32139;DHT22;18644;48.700;9.210;2024-03-25T00:21:29;7.90;63.00
32139;DHT22;18644;48.700;9.210;2024-03-25T00:23:56;7.90;63.00
32139;DHT22;18644;48.700;9.210;2024-03-25T00:26:22;7.90;63.00
32139;DHT22;18644;48.700;9.210;2024-03-25T00:28:49;7.90;63.00
32139;DHT22;18644;48.700;9.210;2024-03-25T00:31:16;7.90;63.00
32139;DHT22;18644;48.700;9.210;2024-03-25T00:33:43;7.90;62.90
32139;DHT22;18644;48.700;9.210;2024-03-25T00:36:10;7.90;62.80
32139;DHT22;18644;48.700;9.210;2024-03-25T00:38:36;7.90;62.90
32139;DHT22;18644;48.700;9.210;2024-03-25T00:41:02;7.90;62.80
32139;DHT22;18644;48.700;9.210;2024-03-25T00:43:30;7.90;62.90
32139;DHT22;18644;48.700;9.210;2024-03-25T00:45:55;7.80;62.80
32139;DHT22;18644;48.700;9.210;2024-03-25T00:48:24;7.90;62.80
32139;DHT22;18644;48.700;9.210;2024-03-25T00:50:50;7.80;62.80
32139;DHT22;18644;48.700;9.210;2024-03-25T00:53:17;7.80;62.80
32139;DHT22;18644;48.700;9.210;2024-03-25T00:55:43;7.80;62.80
32139;DHT22;18644;48.700;9.210;2024-03-25T00:58:10;7.80;62.80
32139;DHT22;18644;48.700;9.210;2024-03-25T01:00:36;7.80;62.70
32139;DHT22;18644;48.700;9.210;2024-03-25T01:03:03;7.80;62.80
32139;DHT22;18644;48.700;9.210;2024-03-25T01:05:31;7.80;62.90
32139;DHT22;18644;48.700;9.210;2024-03-25T01:07:58;7.80;62.80
32139;DHT22;18644;48.700;9.210;2024-03-25T01:10:24;7.80;62.90
32139;DHT22;18644;48.700;9.210;2024-03-25T01:12:51;7.80;62.80
32139;DHT22;18644;48.700;9.210;2024-03-25T01:15:17;7.80;62.80
32139;DHT22;18644;48.700;9.210;2024-03-25T01:17:44;7.80;62.80
32139;DHT22;18644;48.700;9.210;2024-03-25T01:20:10;7.80;62.80
32139;DHT22;18644;48.700;9.210;2024-03-25T01:22:39;7.80;62.80
32139;DHT22;18644;48.700;9.210;2024-03-25T01:25:05;7.80;62.80
32139;DHT22;18644;48.700;9.210;2024-03-25T01:27:33;7.70;62.70
32139;DHT22;18644;48.700;9.210;2024-03-25T01:29:59;7.70;62.70
32139;DHT22;18644;48.700;9.210;2024-03-25T01:32:28;7.70;62.70
32139;DHT22;18644;48.700;9.210;2024-03-25T01:34:55;7.80;62.80
32139;DHT22;18644;48.700;9.210;2024-03-25T01:37:22;7.70;63.50
32139;DHT22;18644;48.700;9.210;2024-03-25T01:39:50;7.80;62.80
32139;DHT22;18644;48.700;9.210;2024-03-25T01:42:17;7.70;62.70
32139;DHT22;18644;48.700;9.210;2024-03-25T01:44:43;7.70;62.70
32139;DHT22;18644;48.700;9.210;2024-03-25T01:47:10;7.70;62.70
32139;DHT22;18644;48.700;9.210;2024-03-25T01:49:36;7.70;62.70
32139;DHT22;18644;48.700;9.210;2024-03-25T01:52:03;7.70;62.70
32139;DHT22;18644;48.700;9.210;2024-03-25T01:54:29;7.60;62.60
32139;DHT22;18644;48.700;9.210;2024-03-25T01:56:58;7.60;62.60
32139;DHT22;18644;48.700;9.210;2024-03-25T01:59:25;7.70;62.70
32139;DHT22;18644;48.700;9.210;2024-03-25T02:01:53;7.60;62.60
32139;DHT22;18644;48.700;9.210;2024-03-25T02:04:20;7.60;62.70
32139;DHT22;18644;48.700;9.210;2024-03-25T02:06:47;7.60;63.30
32139;DHT22;18644;48.700;9.210;2024-03-25T02:09:15;7.60;62.80
32139;DHT22;18644;48.700;9.210;2024-03-25T02:11:42;7.60;62.90
32139;DHT22;18644;48.700;9.210;2024-03-25T02:14:10;7.60;62.90
32139;DHT22;18644;48.700;9.210;2024-03-25T02:16:38;7.60;62.90
32139;DHT22;18644;48.700;9.210;2024-03-25T02:19:04;7.60;62.90
32139;DHT22;18644;48.700;9.210;2024-03-25T02:21:31;7.60;62.90
32139;DHT22;18644;48.700;9.210;2024-03-25T02:23:59;7.60;62.90
32139;DHT22;18644;48.700;9.210;2024-03-25T02:26:28;7.70;63.00
32139;DHT22;18644;48.700;9.210;2024-03-25T02:28:55;7.70;63.10
32139;DHT22;18644;48.700;9.210;2024-03-25T02:31:22;7.70;63.10
32139;DHT22;18644;48.700;9.210;2024-03-25T02:33:48;7.70;63.20
32139;DHT22;18644;48.700;9.210;2024-03-25T02:36:14;7.70;63.10
32139;DHT22;18644;48.700;9.210;2024-03-25T02:38:41;7.70;63.10
32139;DHT22;18644;48.700;9.210;2024-03-25T02:41:08;7.70;63.10
32139;DHT22;18644;48.700;9.210;2024-03-25T02:43:35;7.70;63.10
32139;DHT22;18644;48.700;9.210;2024-03-25T02:46:02;7.70;63.00
32139;DHT22;18644;48.700;9.210;2024-03-25T02:48:28;7.70;63.10
32139;DHT22;18644;48.700;9.210;2024-03-25T02:50:55;7.70;63.10
32139;DHT22;18644;48.700;9.210;2024-03-25T02:53:21;7.70;63.90
32139;DHT22;18644;48.700;9.210;2024-03-25T02:55:48;7.70;63.10
32139;DHT22;18644;48.700;9.210;2024-03-25T02:58:14;7.70;63.10
32139;DHT22;18644;48.700;9.210;2024-03-25T03:00:42;7.70;63.20
32139;DHT22;18644;48.700;9.210;2024-03-25T03:03:08;7.70;63.10
32139;DHT22;18644;48.700;9.210;2024-03-25T03:05:35;7.80;63.10
32139;DHT22;18644;48.700;9.210;2024-03-25T03:08:01;7.80;63.10
32139;DHT22;18644;48.700;9.210;2024-03-25T03:10:28;7.80;63.10
32139;DHT22;18644;48.700;9.210;2024-03-25T03:12:53;7.80;63.10
32139;DHT22;18644;48.700;9.210;2024-03-25T03:15:20;7.80;63.10
32139;DHT22;18644;48.700;9.210;2024-03-25T03:17:48;7.80;63.10
32139;DHT22;18644;48.700;9.210;2024-03-25T03:20:15;7.80;63.10
32139;DHT22;18644;48.700;9.210;2024-03-25T03:22:40;7.80;62.90
32139;DHT22;18644;48.700;9.210;2024-03-25T03:25:07;7.80;62.80
32139;DHT22;18644;48.700;9.210;2024-03-25T03:27:33;7.80;62.70
32139;DHT22;18644;48.700;9.210;2024-03-25T03:30:00;7.80;62.70
32139;DHT22;18644;48.700;9.210;2024-03-25T03:32:26;7.80;62.60
32139;DHT22;18644;48.700;9.210;2024-03-25T03:34:55;7.70;62.50
32139;DHT22;18644;48.700;9.210;2024-03-25T03:37:21;7.70;62.50
32139;DHT22;18644;48.700;9.210;2024-03-25T03:39:48;7.70;62.50
32139;DHT22;18644;48.700;9.210;2024-03-25T03:42:13;7.70;62.50
32139;DHT22;18644;48.700;9.210;2024-03-25T03:44:45;7.60;62.50
32139;DHT22;18644;48.700;9.210;2024-03-25T03:47:11;7.60;62.50
32139;DHT22;18644;48.700;9.210;2024-03-25T03:49:38;7.60;62.60
32139;DHT22;18644;48.700;9.210;2024-03-25T03:52:05;7.60;62.60
32139;DHT22;18644;48.700;9.210;2024-03-25T03:54:32;7.50;62.60
32139;DHT22;18644;48.700;9.210;2024-03-25T03:56:58;7.60;62.70
32139;DHT22;18644;48.700;9.210;2024-03-25T03:59:26;7.50;62.60
32139;DHT22;18644;48.700;9.210;2024-03-25T04:01:52;7.50;62.70
32139;DHT22;18644;48.700;9.210;2024-03-25T04:04:19;7.50;62.70
32139;DHT22;18644;48.700;9.210;2024-03-25T04:06:44;7.50;62.80
32139;DHT22;18644;48.700;9.210;2024-03-25T04:09:13;7.50;63.00
32139;DHT22;18644;48.700;9.210;2024-03-25T04:11:39;7.50;63.00
32139;DHT22;18644;48.700;9.210;2024-03-25T04:14:06;7.50;63.10
32139;DHT22;18644;48.700;9.210;2024-03-25T04:16:31;7.50;63.10
32139;DHT22;18644;48.700;9.210;2024-03-25T04:18:58;7.50;63.20
32139;DHT22;18644;48.700;9.210;2024-03-25T04:21:24;7.50;63.20
32139;DHT22;18644;48.700;9.210;2024-03-25T04:23:51;7.50;63.30
32139;DHT22;18644;48.700;9.210;2024-03-25T04:26:18;7.50;63.20
32139;DHT22;18644;48.700;9.210;2024-03-25T04:28:45;7.50;63.20
32139;DHT22;18644;48.700;9.210;2024-03-25T04:31:11;7.50;63.10
32139;DHT22;18644;48.700;9.210;2024-03-25T04:33:38;7.50;63.10
32139;DHT22;18644;48.700;9.210;2024-03-25T04:36:04;7.50;63.30
32139;DHT22;18644;48.700;9.210;2024-03-25T04:38:31;7.50;62.90
32139;DHT22;18644;48.700;9.210;2024-03-25T04:40:57;7.50;63.00
32139;DHT22;18644;48.700;9.210;2024-03-25T04:43:24;7.50;62.90
32139;DHT22;18644;48.700;9.210;2024-03-25T04:45:50;7.50;62.90
32139;DHT22;18644;48.700;9.210;2024-03-25T04:48:16;7.50;63.00
32139;DHT22;18644;48.700;9.210;2024-03-25T04:50:42;7.40;62.80
32139;DHT22;18644;48.700;9.210;2024-03-25T04:53:08;7.40;62.90
32139;DHT22;18644;48.700;9.210;2024-03-25T04:55:34;7.40;63.00
32139;DHT22;18644;48.700;9.210;2024-03-25T04:58:00;7.40;63.80
32139;DHT22;18644;48.700;9.210;2024-03-25T05:00:27;7.40;63.10
32139;DHT22;18644;48.700;9.210;2024-03-25T05:02:53;7.40;63.10
32139;DHT22;18644;48.700;9.210;2024-03-25T05:05:19;7.40;63.10
32139;DHT22;18644;48.700;9.210;2024-03-25T05:07:45;7.40;63.20
32139;DHT22;18644;48.700;9.210;2024-03-25T05:10:11;7.40;63.20
32139;DHT22;18644;48.700;9.210;2024-03-25T05:12:38;7.40;63.10
32139;DHT22;18644;48.700;9.210;2024-03-25T05:15:05;7.40;63.10
32139;DHT22;18644;48.700;9.210;2024-03-25T05:17:32;7.40;63.10
32139;DHT22;18644;48.700;9.210;2024-03-25T05:19:58;7.40;63.60
32139;DHT22;18644;48.700;9.210;2024-03-25T05:22:24;7.40;63.20
32139;DHT22;18644;48.700;9.210;2024-03-25T05:24:50;7.40;63.20
32139;DHT22;18644;48.700;9.210;2024-03-25T05:27:16;7.40;63.20
32139;DHT22;18644;48.700;9.210;2024-03-25T05:29:42;7.30;63.10
32139;DHT22;18644;48.700;9.210;2024-03-25T05:32:08;7.40;63.20
32139;DHT22;18644;48.700;9.210;2024-03-25T05:34:35;7.30;63.10
32139;DHT22;18644;48.700;9.210;2024-03-25T05:37:01;7.40;63.30
32139;DHT22;18644;48.700;9.210;2024-03-25T05:39:27;7.40;63.40
32139;DHT22;18644;48.700;9.210;2024-03-25T05:41:53;7.30;63.30
32139;DHT22;18644;48.700;9.210;2024-03-25T05:44:19;7.30;63.40
32139;DHT22;18644;48.700;9.210;2024-03-25T05:46:45;7.30;63.50
32139;DHT22;18644;48.700;9.210;2024-03-25T05:49:11;7.30;63.50
32139;DHT22;18644;48.700;9.210;2024-03-25T05:51:38;7.30;63.50
32139;DHT22;18644;48.700;9.210;2024-03-25T05:54:04;7.30;63.50
32139;DHT22;18644;48.700;9.210;2024-03-25T05:56:30;7.30;63.60
32139;DHT22;18644;48.700;9.210;2024-03-25T05:58:56;7.30;63.60
32139;DHT22;18644;48.700;9.210;2024-03-25T06:01:22;7.40;63.70
32139;DHT22;18644;48.700;9.210;2024-03-25T06:03:48;7.40;63.80
32139;DHT22;18644;48.700;9.210;2024-03-25T06:06:14;7.40;63.90
32139;DHT22;18644;48.700;9.210;2024-03-25T06:08:42;7.40;63.90
32139;DHT22;18644;48.700;9.210;2024-03-25T06:11:08;7.40;64.00
32139;DHT22;18644;48.700;9.210;2024-03-25T06:13:34;7.40;64.00
32139;DHT22;18644;48.700;9.210;2024-03-25T06:16:00;7.50;64.10
32139;DHT22;18644;48.700;9.210;2024-03-25T06:18:26;7.50;64.00
32139;DHT22;18644;48.700;9.210;2024-03-25T06:20:52;7.50;63.90
32139;DHT22;18644;48.700;9.210;2024-03-25T06:23:22;7.50;63.80
32139;DHT22;18644;48.700;9.210;2024-03-25T06:25:51;7.60;63.80
32139;DHT22;18644;48.700;9.210;2024-03-25T06:28:17;7.60;63.70
32139;DHT22;18644;48.700;9.210;2024-03-25T06:30:45;7.70;63.90
32139;DHT22;18644;48.700;9.210;2024-03-25T06:33:30;7.70;64.00
32139;DHT22;18644;48.700;9.210;2024-03-25T06:36:14;7.70;63.80
32139;DHT22;18644;48.700;9.210;2024-03-25T06:38:40;7.80;63.80
32139;DHT22;18644;48.700;9.210;2024-03-25T06:41:08;7.80;63.80
32139;DHT22;18644;48.700;9.210;2024-03-25T06:43:34;7.90;63.90
32139;DHT22;18644;48.700;9.210;2024-03-25T06:46:00;7.90;63.80
32139;DHT22;18644;48.700;9.210;2024-03-25T06:48:26;8.00;63.90
32139;DHT22;18644;48.700;9.210;2024-03-25T06:50:53;8.10;63.80
32139;DHT22;18644;48.700;9.210;2024-03-25T06:53:19;8.10;63.70
32139;DHT22;18644;48.700;9.210;2024-03-25T06:55:51;8.20;63.90
32139;DHT22;18644;48.700;9.210;2024-03-25T06:58:21;8.20;63.80
32139;DHT22;18644;48.700;9.210;2024-03-25T07:00:47;8.30;63.60
32139;DHT22;18644;48.700;9.210;2024-03-25T07:03:14;8.30;63.60
32139;DHT22;18644;48.700;9.210;2024-03-25T07:05:41;8.40;63.40
32139;DHT22;18644;48.700;9.210;2024-03-25T07:08:07;8.50;63.30
32139;DHT22;18644;48.700;9.210;2024-03-25T07:10:33;8.50;63.10
32139;DHT22;18644;48.700;9.210;2024-03-25T07:12:59;8.50;63.00
32139;DHT22;18644;48.700;9.210;2024-03-25T07:15:30;8.50;63.00
32139;DHT22;18644;48.700;9.210;2024-03-25T07:17:56;8.60;63.00
32139;DHT22;18644;48.700;9.210;2024-03-25T07:20:22;8.60;63.00
32139;DHT22;18644;48.700;9.210;2024-03-25T07:22:48;8.70;63.10
32139;DHT22;18644;48.700;9.210;2024-03-25T07:25:14;8.80;63.20
32139;DHT22;18644;48.700;9.210;2024-03-25T07:27:41;8.80;63.10
32139;DHT22;18644;48.700;9.210;2024-03-25T07:30:07;8.90;63.10
32139;DHT22;18644;48.700;9.210;2024-03-25T07:32:35;8.90;62.90
32139;DHT22;18644;48.700;9.210;2024-03-25T07:35:01;9.00;62.70
32139;DHT22;18644;48.700;9.210;2024-03-25T07:37:27;9.00;62.40
32139;DHT22;18644;48.700;9.210;2024-03-25T07:39:53;9.10;62.30
32139;DHT22;18644;48.700;9.210;2024-03-25T07:42:19;9.10;62.20
32139;DHT22;18644;48.700;9.210;2024-03-25T07:44:45;9.20;62.20
32139;DHT22;18644;48.700;9.210;2024-03-25T07:47:11;9.20;62.10
32139;DHT22;18644;48.700;9.210;2024-03-25T07:49:39;9.20;61.90
32139;DHT22;18644;48.700;9.210;2024-03-25T07:52:05;9.20;62.10
32139;DHT22;18644;48.700;9.210;2024-03-25T07:54:31;9.30;62.60
32139;DHT22;18644;48.700;9.210;2024-03-25T07:56:58;9.40;63.00
32139;DHT22;18644;48.700;9.210;2024-03-25T07:59:24;9.50;62.80
32139;DHT22;18644;48.700;9.210;2024-03-25T08:01:50;9.60;62.60
32139;DHT22;18644;48.700;9.210;2024-03-25T08:04:16;9.70;62.10
32139;DHT22;18644;48.700;9.210;2024-03-25T08:06:43;9.80;62.10
32139;DHT22;18644;48.700;9.210;2024-03-25T08:09:09;9.90;62.10
32139;DHT22;18644;48.700;9.210;2024-03-25T08:11:35;10.00;62.20
32139;DHT22;18644;48.700;9.210;2024-03-25T08:14:01;10.20;62.50
32139;DHT22;18644;48.700;9.210;2024-03-25T08:16:27;10.30;62.50
32139;DHT22;18644;48.700;9.210;2024-03-25T08:18:53;10.50;62.50
32139;DHT22;18644;48.700;9.210;2024-03-25T08:21:19;10.60;62.20
32139;DHT22;18644;48.700;9.210;2024-03-25T08:23:46;10.80;61.90
32139;DHT22;18644;48.700;9.210;2024-03-25T08:26:12;10.90;61.60
32139;DHT22;18644;48.700;9.210;2024-03-25T08:28:38;11.00;61.40
32139;DHT22;18644;48.700;9.210;2024-03-25T08:31:05;11.20;61.90
32139;DHT22;18644;48.700;9.210;2024-03-25T08:33:33;11.30;60.80
32139;DHT22;18644;48.700;9.210;2024-03-25T08:35:59;11.50;60.50
32139;DHT22;18644;48.700;9.210;2024-03-25T08:38:25;11.60;60.60
32139;DHT22;18644;48.700;9.210;2024-03-25T08:40:53;11.70;60.00
32139;DHT22;18644;48.700;9.210;2024-03-25T08:43:19;11.90;59.90
32139;DHT22;18644;48.700;9.210;2024-03-25T08:45:44;12.00;59.90
32139;DHT22;18644;48.700;9.210;2024-03-25T08:48:11;12.10;60.60
32139;DHT22;18644;48.700;9.210;2024-03-25T08:50:36;12.30;59.50
32139;DHT22;18644;48.700;9.210;2024-03-25T08:53:03;12.40;59.00
32139;DHT22;18644;48.700;9.210;2024-03-25T08:55:30;12.50;59.10
32139;DHT22;18644;48.700;9.210;2024-03-25T08:57:57;12.70;58.80
32139;DHT22;18644;48.700;9.210;2024-03-25T09:00:24;12.80;58.80
32139;DHT22;18644;48.700;9.210;2024-03-25T09:02:50;13.00;58.60
32139;DHT22;18644;48.700;9.210;2024-03-25T09:05:17;13.10;57.70
32139;DHT22;18644;48.700;9.210;2024-03-25T09:07:43;13.20;57.80
32139;DHT22;18644;48.700;9.210;2024-03-25T09:10:10;13.30;57.90
32139;DHT22;18644;48.700;9.210;2024-03-25T09:12:54;13.50;57.60
32139;DHT22;18644;48.700;9.210;2024-03-25T09:15:22;13.70;57.40
32139;DHT22;18644;48.700;9.210;2024-03-25T09:17:48;13.90;57.30
32139;DHT22;18644;48.700;9.210;2024-03-25T09:20:14;14.00;58.30
32139;DHT22;18644;48.700;9.210;2024-03-25T09:22:42;14.20;57.70
32139;DHT22;18644;48.700;9.210;2024-03-25T09:25:08;14.40;56.60
32139;DHT22;18644;48.700;9.210;2024-03-25T09:27:36;14.60;56.30
32139;DHT22;18644;48.700;9.210;2024-03-25T09:30:03;14.70;55.90
32139;DHT22;18644;48.700;9.210;2024-03-25T09:32:31;14.90;55.30
32139;DHT22;18644;48.700;9.210;2024-03-25T09:34:58;15.00;54.40
32139;DHT22;18644;48.700;9.210;2024-03-25T09:37:24;15.10;54.20
32139;DHT22;18644;48.700;9.210;2024-03-25T09:39:50;15.20;53.00
32139;DHT22;18644;48.700;9.210;2024-03-25T09:42:22;15.20;52.30
32139;DHT22;18644;48.700;9.210;2024-03-25T09:44:52;15.10;50.80
32139;DHT22;18644;48.700;9.210;2024-03-25T09:47:19;15.00;50.80
32139;DHT22;18644;48.700;9.210;2024-03-25T09:49:48;14.90;50.70
32139;DHT22;18644;48.700;9.210;2024-03-25T09:52:14;14.80;50.00
32139;DHT22;18644;48.700;9.210;2024-03-25T09:54:40;14.70;49.80
32139;DHT22;18644;48.700;9.210;2024-03-25T09:57:06;14.50;49.40
32139;DHT22;18644;48.700;9.210;2024-03-25T09:59:33;14.40;49.10
32139;DHT22;18644;48.700;9.210;2024-03-25T10:02:01;14.20;49.90
32139;DHT22;18644;48.700;9.210;2024-03-25T10:04:27;14.20;50.70
32139;DHT22;18644;48.700;9.210;2024-03-25T10:06:55;14.10;51.00
32139;DHT22;18644;48.700;9.210;2024-03-25T10:09:22;14.20;51.00
32139;DHT22;18644;48.700;9.210;2024-03-25T10:11:49;14.20;50.90
32139;DHT22;18644;48.700;9.210;2024-03-25T10:14:15;14.20;50.80
32139;DHT22;18644;48.700;9.210;2024-03-25T10:16:41;14.30;50.70
32139;DHT22;18644;48.700;9.210;2024-03-25T10:19:08;14.30;50.40
32139;DHT22;18644;48.700;9.210;2024-03-25T10:21:34;14.30;50.30
32139;DHT22;18644;48.700;9.210;2024-03-25T10:24:04;14.30;50.10
32139;DHT22;18644;48.700;9.210;2024-03-25T10:26:31;14.20;49.80
32139;DHT22;18644;48.700;9.210;2024-03-25T10:29:02;14.20;49.50
32139;DHT22;18644;48.700;9.210;2024-03-25T10:31:29;14.20;49.40
32139;DHT22;18644;48.700;9.210;2024-03-25T10:33:55;14.20;49.20
32139;DHT22;18644;48.700;9.210;2024-03-25T10:36:21;14.10;49.20
32139;DHT22;18644;48.700;9.210;2024-03-25T10:38:49;14.10;49.60
32139;DHT22;18644;48.700;9.210;2024-03-25T10:41:18;14.10;49.50
32139;DHT22;18644;48.700;9.210;2024-03-25T10:43:47;14.10;49.20
32139;DHT22;18644;48.700;9.210;2024-03-25T10:46:17;14.20;49.40
32139;DHT22;18644;48.700;9.210;2024-03-25T10:48:51;14.10;49.50
32139;DHT22;18644;48.700;9.210;2024-03-25T10:51:21;14.20;49.20
32139;DHT22;18644;48.700;9.210;2024-03-25T10:53:49;14.20;49.40
32139;DHT22;18644;48.700;9.210;2024-03-25T10:56:20;14.30;49.60
32139;DHT22;18644;48.700;9.210;2024-03-25T10:58:47;14.30;50.10
32139;DHT22;18644;48.700;9.210;2024-03-25T11:01:16;14.40;51.40
32139;DHT22;18644;48.700;9.210;2024-03-25T11:03:43;14.70;51.80
32139;DHT22;18644;48.700;9.210;2024-03-25T11:06:10;14.80;51.10
32139;DHT22;18644;48.700;9.210;2024-03-25T11:08:36;15.00;50.80
32139;DHT22;18644;48.700;9.210;2024-03-25T11:11:02;15.10;50.20
32139;DHT22;18644;48.700;9.210;2024-03-25T11:13:31;15.30;50.10
32139;DHT22;18644;48.700;9.210;2024-03-25T11:15:58;15.50;50.80
32139;DHT22;18644;48.700;9.210;2024-03-25T11:18:25;15.70;51.30
32139;DHT22;18644;48.700;9.210;2024-03-25T11:21:09;16.00;51.30
32139;DHT22;18644;48.700;9.210;2024-03-25T11:23:36;16.30;49.80
32139;DHT22;18644;48.700;9.210;2024-03-25T11:26:03;16.60;50.90
32139;DHT22;18644;48.700;9.210;2024-03-25T11:28:30;16.80;51.20
32139;DHT22;18644;48.700;9.210;2024-03-25T11:30:56;17.10;50.10
32139;DHT22;18644;48.700;9.210;2024-03-25T11:33:22;17.30;49.40
32139;DHT22;18644;48.700;9.210;2024-03-25T11:35:49;17.50;48.80
32139;DHT22;18644;48.700;9.210;2024-03-25T11:38:15;17.60;48.10
32139;DHT22;18644;48.700;9.210;2024-03-25T11:40:43;17.80;48.10
32139;DHT22;18644;48.700;9.210;2024-03-25T11:43:09;17.90;48.30
32139;DHT22;18644;48.700;9.210;2024-03-25T11:45:37;18.00;47.80
32139;DHT22;18644;48.700;9.210;2024-03-25T11:48:05;18.20;48.00
32139;DHT22;18644;48.700;9.210;2024-03-25T11:50:34;18.30;47.90
32139;DHT22;18644;48.700;9.210;2024-03-25T11:53:03;18.50;47.50
32139;DHT22;18644;48.700;9.210;2024-03-25T11:55:30;18.60;47.70
32139;DHT22;18644;48.700;9.210;2024-03-25T11:57:56;18.80;47.10
32139;DHT22;18644;48.700;9.210;2024-03-25T12:00:23;18.90;46.90
32139;DHT22;18644;48.700;9.210;2024-03-25T12:02:51;19.10;46.30
32139;DHT22;18644;48.700;9.210;2024-03-25T12:05:18;19.20;45.70
32139;DHT22;18644;48.700;9.210;2024-03-25T12:07:44;19.30;44.90
32139;DHT22;18644;48.700;9.210;2024-03-25T12:10:10;19.30;44.60
32139;DHT22;18644;48.700;9.210;2024-03-25T12:12:55;19.30;43.20
32139;DHT22;18644;48.700;9.210;2024-03-25T12:15:23;19.20;43.30
32139;DHT22;18644;48.700;9.210;2024-03-25T12:17:51;19.10;42.60
32139;DHT22;18644;48.700;9.210;2024-03-25T12:20:17;19.00;42.30
32139;DHT22;18644;48.700;9.210;2024-03-25T12:22:44;18.90;42.30
32139;DHT22;18644;48.700;9.210;2024-03-25T12:25:10;18.80;42.60
32139;DHT22;18644;48.700;9.210;2024-03-25T12:27:38;18.70;42.50
32139;DHT22;18644;48.700;9.210;2024-03-25T12:30:06;18.70;43.10
32139;DHT22;18644;48.700;9.210;2024-03-25T12:32:36;18.60;42.30
32139;DHT22;18644;48.700;9.210;2024-03-25T12:35:07;18.70;42.60
32139;DHT22;18644;48.700;9.210;2024-03-25T12:37:33;18.70;42.40
32139;DHT22;18644;48.700;9.210;2024-03-25T12:40:00;18.80;41.70
32139;DHT22;18644;48.700;9.210;2024-03-25T12:42:26;18.80;40.70
32139;DHT22;18644;48.700;9.210;2024-03-25T12:44:53;18.80;41.40
32139;DHT22;18644;48.700;9.210;2024-03-25T12:47:19;18.80;42.00
32139;DHT22;18644;48.700;9.210;2024-03-25T12:49:45;18.80;42.60
32139;DHT22;18644;48.700;9.210;2024-03-25T12:52:13;18.90;42.80
32139;DHT22;18644;48.700;9.210;2024-03-25T12:54:39;19.00;42.30
32139;DHT22;18644;48.700;9.210;2024-03-25T12:57:05;19.10;41.80
32139;DHT22;18644;48.700;9.210;2024-03-25T12:59:31;19.20;41.80
32139;DHT22;18644;48.700;9.210;2024-03-25T13:01:57;19.30;41.50
32139;DHT22;18644;48.700;9.210;2024-03-25T13:04:23;19.30;40.50
32139;DHT22;18644;48.700;9.210;2024-03-25T13:06:49;19.40;40.40
32139;DHT22;18644;48.700;9.210;2024-03-25T13:09:16;19.40;40.40
32139;DHT22;18644;48.700;9.210;2024-03-25T13:11:43;19.40;39.70
32139;DHT22;18644;48.700;9.210;2024-03-25T13:14:11;19.40;39.60
32139;DHT22;18644;48.700;9.210;2024-03-25T13:16:38;19.40;39.30
32139;DHT22;18644;48.700;9.210;2024-03-25T13:19:04;19.40;39.40
32139;DHT22;18644;48.700;9.210;2024-03-25T13:21:30;19.30;39.80
32139;DHT22;18644;48.700;9.210;2024-03-25T13:23:56;19.40;39.80
32139;DHT22;18644;48.700;9.210;2024-03-25T13:26:23;19.40;39.60
32139;DHT22;18644;48.700;9.210;2024-03-25T13:28:49;19.50;39.90
32139;DHT22;18644;48.700;9.210;2024-03-25T13:31:15;19.50;39.80
32139;DHT22;18644;48.700;9.210;2024-03-25T13:33:41;19.60;39.20
32139;DHT22;18644;48.700;9.210;2024-03-25T13:36:07;19.60;39.10
32139;DHT22;18644;48.700;9.210;2024-03-25T13:38:33;19.70;38.80
32139;DHT22;18644;48.700;9.210;2024-03-25T13:41:00;19.80;38.20
32139;DHT22;18644;48.700;9.210;2024-03-25T13:43:28;19.80;38.70
32139;DHT22;18644;48.700;9.210;2024-03-25T13:45:54;19.80;38.60
32139;DHT22;18644;48.700;9.210;2024-03-25T13:48:20;19.80;38.00
32139;DHT22;18644;48.700;9.210;2024-03-25T13:50:47;19.80;38.00
32139;DHT22;18644;48.700;9.210;2024-03-25T13:53:14;19.80;38.00
32139;DHT22;18644;48.700;9.210;2024-03-25T13:55:40;19.80;39.20
32139;DHT22;18644;48.700;9.210;2024-03-25T13:58:06;19.80;38.50
32139;DHT22;18644;48.700;9.210;2024-03-25T14:00:34;19.80;38.10
32139;DHT22;18644;48.700;9.210;2024-03-25T14:03:00;19.90;37.50
32139;DHT22;18644;48.700;9.210;2024-03-25T14:05:26;19.90;37.10
32139;DHT22;18644;48.700;9.210;2024-03-25T14:07:52;19.90;37.00
32139;DHT22;18644;48.700;9.210;2024-03-25T14:10:18;19.80;37.10
32139;DHT22;18644;48.700;9.210;2024-03-25T14:12:44;19.90;37.10
32139;DHT22;18644;48.700;9.210;2024-03-25T14:15:10;19.80;36.10
32139;DHT22;18644;48.700;9.210;2024-03-25T14:17:37;19.80;35.80
32139;DHT22;18644;48.700;9.210;2024-03-25T14:20:04;19.70;35.90
32139;DHT22;18644;48.700;9.210;2024-03-25T14:22:31;19.60;36.00
32139;DHT22;18644;48.700;9.210;2024-03-25T14:24:57;19.60;36.30
32139;DHT22;18644;48.700;9.210;2024-03-25T14:27:23;19.60;36.80
32139;DHT22;18644;48.700;9.210;2024-03-25T14:29:49;19.60;37.00
32139;DHT22;18644;48.700;9.210;2024-03-25T14:32:16;19.70;36.80
32139;DHT22;18644;48.700;9.210;2024-03-25T14:34:46;19.70;36.30
32139;DHT22;18644;48.700;9.210;2024-03-25T14:37:12;19.70;36.30
32139;DHT22;18644;48.700;9.210;2024-03-25T14:39:38;19.70;35.90
32139;DHT22;18644;48.700;9.210;2024-03-25T14:42:08;19.70;35.90
32139;DHT22;18644;48.700;9.210;2024-03-25T14:44:35;19.60;36.30
32139;DHT22;18644;48.700;9.210;2024-03-25T14:47:01;19.70;36.50
32139;DHT22;18644;48.700;9.210;2024-03-25T14:49:28;19.60;35.80
32139;DHT22;18644;48.700;9.210;2024-03-25T14:51:55;19.70;36.20
32139;DHT22;18644;48.700;9.210;2024-03-25T14:54:21;19.70;36.50
32139;DHT22;18644;48.700;9.210;2024-03-25T14:56:47;19.70;35.90
32139;DHT22;18644;48.700;9.210;2024-03-25T14:59:14;19.70;35.40
32139;DHT22;18644;48.700;9.210;2024-03-25T15:01:40;19.70;35.00
32139;DHT22;18644;48.700;9.210;2024-03-25T15:04:07;19.60;34.90
32139;DHT22;18644;48.700;9.210;2024-03-25T15:06:33;19.50;35.00
32139;DHT22;18644;48.700;9.210;2024-03-25T15:09:00;19.50;35.20
32139;DHT22;18644;48.700;9.210;2024-03-25T15:11:27;19.40;35.10
32139;DHT22;18644;48.700;9.210;2024-03-25T15:13:53;19.40;35.60
32139;DHT22;18644;48.700;9.210;2024-03-25T15:16:20;19.40;35.40
32139;DHT22;18644;48.700;9.210;2024-03-25T15:18:46;19.40;35.20
32139;DHT22;18644;48.700;9.210;2024-03-25T15:21:12;19.40;35.40
32139;DHT22;18644;48.700;9.210;2024-03-25T15:23:38;19.40;35.10
32139;DHT22;18644;48.700;9.210;2024-03-25T15:26:05;19.40;34.70
32139;DHT22;18644;48.700;9.210;2024-03-25T15:28:31;19.30;34.60
32139;DHT22;18644;48.700;9.210;2024-03-25T15:30:58;19.30;34.80
32139;DHT22;18644;48.700;9.210;2024-03-25T15:33:25;19.30;34.70
32139;DHT22;18644;48.700;9.210;2024-03-25T15:35:51;19.20;34.50
32139;DHT22;18644;48.700;9.210;2024-03-25T15:38:17;19.20;34.60